createdAt,value
2018-09-29T00:01:13.072Z,8.70
2018-09-29T00:03:41.645Z,8.70
2018-09-29T00:06:10.040Z,8.60
2018-09-29T00:08:38.411Z,8.60
2018-09-29T00:11:06.814Z,8.60
2018-09-29T00:13:35.289Z,8.60
2018-09-29T00:16:03.647Z,8.60
2018-09-29T00:18:31.994Z,8.60
2018-09-29T00:21:00.380Z,8.50
2018-09-29T00:23:28.764Z,8.50
2018-09-29T00:25:57.127Z,8.50
2018-09-29T00:28:25.481Z,8.60
2018-09-29T00:30:53.894Z,8.50
2018-09-29T00:33:22.357Z,8.50
2018-09-29T00:35:50.704Z,8.40
2018-09-29T00:38:19.088Z,8.40
2018-09-29T00:40:47.515Z,8.50
2018-09-29T00:43:16.003Z,8.40
2018-09-29T00:45:44.394Z,8.40
2018-09-29T00:48:12.764Z,8.40
2018-09-29T00:50:41.112Z,8.30
2018-09-29T00:53:09.503Z,8.30
2018-09-29T00:55:37.962Z,8.20
2018-09-29T00:58:06.402Z,8.20
2018-09-29T01:00:34.738Z,8.20
2018-09-29T01:03:03.209Z,8.20
2018-09-29T01:05:31.596Z,8.20
2018-09-29T01:07:59.972Z,8.10
2018-09-29T01:10:28.407Z,8.10
2018-09-29T01:12:56.785Z,8.10
2018-09-29T01:15:25.187Z,8.10
2018-09-29T01:17:53.526Z,8.10
2018-09-29T01:20:21.959Z,8.00
2018-09-29T01:22:50.503Z,8.00
2018-09-29T01:25:18.851Z,8.00
2018-09-29T01:27:47.234Z,8.00
2018-09-29T01:30:15.584Z,8.00
2018-09-29T01:32:43.989Z,8.00
2018-09-29T01:35:12.327Z,8.10
2018-09-29T01:37:40.700Z,8.10
2018-09-29T01:40:09.238Z,8.00
2018-09-29T01:42:37.745Z,8.00
2018-09-29T01:45:06.306Z,8.00
2018-09-29T01:47:34.699Z,8.10
2018-09-29T01:50:03.082Z,8.10
2018-09-29T01:52:31.624Z,8.00
2018-09-29T01:55:00.306Z,8.00
2018-09-29T01:57:28.844Z,8.00
2018-09-29T01:59:57.172Z,8.00
2018-09-29T02:02:25.758Z,8.00
2018-09-29T02:04:54.739Z,7.90
2018-09-29T02:07:23.135Z,7.90
2018-09-29T02:09:51.876Z,7.80
2018-09-29T02:12:20.357Z,7.80
2018-09-29T02:14:48.838Z,7.70
2018-09-29T02:17:17.369Z,7.60
2018-09-29T02:19:45.878Z,7.50
2018-09-29T02:22:14.410Z,7.50
2018-09-29T02:24:42.874Z,7.50
2018-09-29T02:27:11.327Z,7.50
2018-09-29T02:29:39.925Z,7.50
2018-09-29T02:32:08.317Z,7.40
2018-09-29T02:34:36.643Z,7.40
2018-09-29T02:37:05.021Z,7.40
2018-09-29T02:39:33.440Z,7.40
2018-09-29T02:42:01.818Z,7.50
2018-09-29T02:44:30.212Z,7.40
2018-09-29T02:46:58.600Z,7.40
2018-09-29T02:49:26.977Z,7.30
2018-09-29T02:51:55.337Z,7.40
2018-09-29T02:54:23.725Z,7.40
2018-09-29T02:56:52.167Z,7.30
2018-09-29T02:59:20.532Z,7.30
2018-09-29T03:01:48.959Z,7.30
2018-09-29T03:04:17.600Z,7.30
2018-09-29T03:06:46.000Z,7.40
2018-09-29T03:09:14.475Z,7.40
2018-09-29T03:11:42.822Z,7.40
2018-09-29T03:14:11.360Z,7.40
2018-09-29T03:16:39.724Z,7.40
2018-09-29T03:19:08.110Z,7.40
2018-09-29T03:21:36.511Z,7.40
2018-09-29T03:24:05.003Z,7.40
2018-09-29T03:26:33.495Z,7.40
2018-09-29T03:29:01.874Z,7.50
2018-09-29T03:31:30.279Z,7.60
2018-09-29T03:33:58.653Z,7.60
2018-09-29T03:36:27.044Z,7.60
2018-09-29T03:38:55.435Z,7.60
2018-09-29T03:41:23.787Z,7.60
2018-09-29T03:43:52.270Z,7.60
2018-09-29T03:46:21.002Z,7.60
2018-09-29T03:48:49.393Z,7.70
2018-09-29T03:51:17.766Z,7.80
2018-09-29T03:53:46.381Z,7.80
2018-09-29T03:56:14.810Z,7.90
2018-09-29T03:58:43.206Z,7.90
2018-09-29T04:01:18.910Z,8.00
2018-09-29T04:03:49.915Z,8.00
2018-09-29T04:06:18.388Z,7.90
2018-09-29T04:08:46.798Z,7.90
2018-09-29T04:11:15.157Z,7.90
2018-09-29T04:13:43.843Z,7.90
2018-09-29T04:16:12.336Z,7.90
2018-09-29T04:18:40.729Z,7.90
2018-09-29T04:21:09.135Z,7.90
2018-09-29T04:23:37.967Z,7.90
2018-09-29T04:26:06.513Z,8.00
2018-09-29T04:28:34.874Z,8.10
2018-09-29T04:31:03.201Z,8.20
2018-09-29T04:33:32.074Z,8.20
2018-09-29T04:36:00.438Z,8.20
2018-09-29T04:38:28.777Z,8.20
2018-09-29T04:40:57.192Z,8.20
2018-09-29T04:43:25.746Z,8.30
2018-09-29T04:45:54.127Z,8.30
2018-09-29T04:48:22.513Z,8.30
2018-09-29T04:50:50.849Z,8.30
2018-09-29T04:53:19.237Z,8.30
2018-09-29T04:55:47.596Z,8.40
2018-09-29T04:58:16.101Z,8.30
2018-09-29T05:00:44.454Z,8.40
2018-09-29T05:03:12.977Z,8.30
2018-09-29T05:05:41.330Z,8.30
2018-09-29T05:08:09.666Z,8.30
2018-09-29T05:10:38.055Z,8.20
2018-09-29T05:13:06.439Z,8.20
2018-09-29T05:15:34.760Z,8.10
2018-09-29T05:18:03.134Z,8.10
2018-09-29T05:20:31.524Z,8.10
2018-09-29T05:22:59.951Z,8.20
2018-09-29T05:25:28.460Z,8.20
2018-09-29T05:27:56.812Z,8.20
2018-09-29T05:30:25.247Z,8.30
2018-09-29T05:32:53.676Z,8.30
2018-09-29T05:35:21.997Z,8.30
2018-09-29T05:37:50.312Z,8.30
2018-09-29T05:40:18.660Z,8.40
2018-09-29T05:42:47.333Z,8.40
2018-09-29T05:45:15.716Z,8.40
2018-09-29T05:47:44.103Z,8.40
2018-09-29T05:50:12.533Z,8.40
2018-09-29T05:52:40.922Z,8.40
2018-09-29T05:55:09.261Z,8.50
2018-09-29T05:57:37.589Z,8.50
2018-09-29T06:00:05.976Z,8.50
2018-09-29T06:02:34.460Z,8.50
2018-09-29T06:05:02.766Z,8.50
2018-09-29T06:07:31.395Z,8.60
2018-09-29T06:09:59.716Z,8.60
2018-09-29T06:12:28.242Z,8.60
2018-09-29T06:14:56.565Z,8.70
2018-09-29T06:17:24.945Z,8.60
2018-09-29T06:19:53.330Z,8.70
2018-09-29T06:22:21.710Z,8.70
2018-09-29T06:24:50.088Z,8.80
2018-09-29T06:27:18.448Z,8.90
2018-09-29T06:29:46.782Z,9.00
2018-09-29T06:32:15.499Z,9.00
2018-09-29T06:34:43.854Z,9.10
2018-09-29T06:37:12.243Z,9.20
2018-09-29T06:39:40.585Z,9.30
2018-09-29T06:42:09.083Z,9.30
2018-09-29T06:44:37.421Z,9.40
2018-09-29T06:47:06.063Z,9.40
2018-09-29T06:49:34.401Z,9.40
2018-09-29T06:52:03.766Z,9.40
2018-09-29T06:54:32.445Z,9.40
2018-09-29T06:57:00.757Z,9.40
2018-09-29T06:59:29.080Z,9.30
2018-09-29T07:01:57.581Z,9.20
2018-09-29T07:04:26.122Z,9.10
2018-09-29T07:06:54.443Z,9.20
2018-09-29T07:09:22.784Z,9.30
2018-09-29T07:11:51.119Z,9.40
2018-09-29T07:14:19.451Z,9.50
2018-09-29T07:16:47.808Z,9.50
2018-09-29T07:19:16.124Z,9.60
2018-09-29T07:21:44.504Z,9.70
2018-09-29T07:24:13.009Z,9.80
2018-09-29T07:26:41.323Z,9.90
2018-09-29T07:29:09.745Z,9.90
2018-09-29T07:31:38.297Z,10.00
2018-09-29T07:34:06.795Z,10.10
2018-09-29T07:36:35.174Z,10.20
2018-09-29T07:39:04.747Z,10.20
2018-09-29T07:41:33.104Z,10.30
2018-09-29T07:44:01.520Z,10.40
2018-09-29T07:46:29.921Z,10.50
2018-09-29T07:48:58.256Z,10.50
2018-09-29T07:51:26.572Z,10.60
2018-09-29T07:53:55.936Z,10.60
2018-09-29T07:56:24.289Z,10.70
2018-09-29T07:58:52.614Z,10.70
2018-09-29T08:01:20.968Z,10.80
2018-09-29T08:03:49.270Z,10.80
2018-09-29T08:06:17.698Z,10.90
2018-09-29T08:08:47.010Z,10.90
2018-09-29T08:11:15.381Z,11.00
2018-09-29T08:13:43.950Z,11.10
2018-09-29T08:16:12.347Z,11.20
2018-09-29T08:18:46.985Z,11.20
2018-09-29T08:21:15.374Z,11.30
2018-09-29T08:23:43.815Z,11.30
2018-09-29T08:26:12.123Z,11.40
2018-09-29T08:28:40.506Z,11.40
2018-09-29T08:31:08.945Z,11.50
2018-09-29T08:33:37.488Z,11.60
2018-09-29T08:36:05.871Z,11.60
2018-09-29T08:38:34.245Z,11.70
2018-09-29T08:41:02.644Z,11.70
2018-09-29T08:43:32.088Z,11.80
2018-09-29T08:46:00.498Z,11.80
2018-09-29T08:48:28.856Z,11.90
2018-09-29T08:50:57.205Z,12.00
2018-09-29T08:53:25.571Z,12.10
2018-09-29T08:55:53.888Z,12.10
2018-09-29T08:58:22.209Z,12.20
2018-09-29T09:00:50.542Z,12.20
2018-09-29T09:03:18.888Z,12.20
2018-09-29T09:05:47.296Z,12.20
2018-09-29T09:08:15.641Z,12.30
2018-09-29T09:10:44.048Z,12.40
2018-09-29T09:13:12.592Z,12.50
2018-09-29T09:15:41.026Z,12.60
2018-09-29T09:18:09.350Z,12.70
2018-09-29T09:20:37.695Z,12.80
2018-09-29T09:23:06.498Z,12.90
2018-09-29T09:25:34.879Z,12.90
2018-09-29T09:28:03.244Z,12.90
2018-09-29T09:30:31.597Z,12.80
2018-09-29T09:32:59.960Z,12.80
2018-09-29T09:35:28.313Z,12.80
2018-09-29T09:37:56.685Z,12.90
2018-09-29T09:40:25.036Z,12.90
2018-09-29T09:42:54.671Z,13.00
2018-09-29T09:45:23.094Z,13.00
2018-09-29T09:47:51.445Z,13.10
2018-09-29T09:50:19.747Z,13.10
2018-09-29T09:52:48.258Z,13.10
2018-09-29T09:55:16.686Z,13.10
2018-09-29T09:57:45.018Z,13.10
2018-09-29T10:00:14.049Z,13.10
2018-09-29T10:02:46.840Z,13.10
2018-09-29T10:05:15.219Z,13.20
2018-09-29T10:07:43.599Z,13.30
2018-09-29T10:10:11.936Z,13.30
2018-09-29T10:12:40.334Z,13.30
2018-09-29T10:15:09.013Z,13.30
2018-09-29T10:17:37.448Z,13.30
2018-09-29T10:20:06.171Z,13.50
2018-09-29T10:22:34.790Z,13.50
2018-09-29T10:25:03.171Z,13.50
2018-09-29T10:27:31.633Z,13.50
2018-09-29T10:29:59.993Z,13.70
2018-09-29T10:32:28.479Z,13.70
2018-09-29T10:34:56.980Z,13.70
2018-09-29T10:37:25.353Z,13.70
2018-09-29T10:39:53.735Z,13.70
2018-09-29T10:42:22.728Z,13.70
2018-09-29T10:44:51.121Z,13.80
2018-09-29T10:47:19.534Z,13.80
2018-09-29T10:49:47.986Z,13.90
2018-09-29T10:52:16.577Z,13.90
2018-09-29T10:54:45.818Z,14.10
2018-09-29T10:57:14.225Z,14.10
2018-09-29T10:59:42.630Z,14.10
2018-09-29T11:02:12.116Z,14.10
2018-09-29T11:04:40.782Z,14.10
2018-09-29T11:07:09.259Z,14.10
2018-09-29T11:09:37.602Z,14.10
2018-09-29T11:12:06.250Z,14.10
2018-09-29T11:14:34.654Z,14.20
2018-09-29T11:17:03.098Z,14.20
2018-09-29T11:19:31.484Z,14.30
2018-09-29T11:21:59.880Z,14.20
2018-09-29T11:24:28.259Z,14.30
2018-09-29T11:26:56.827Z,14.20
2018-09-29T11:29:25.238Z,14.20
2018-09-29T11:31:54.177Z,14.20
2018-09-29T11:34:22.727Z,14.20
2018-09-29T11:36:51.154Z,14.30
2018-09-29T11:39:19.583Z,14.30
2018-09-29T11:41:47.956Z,14.30
2018-09-29T11:44:16.389Z,14.40
2018-09-29T11:46:44.745Z,14.40
2018-09-29T11:49:13.125Z,14.50
2018-09-29T11:51:41.495Z,14.50
2018-09-29T11:54:09.887Z,14.50
2018-09-29T11:56:38.276Z,14.50
2018-09-29T11:59:06.670Z,14.40
2018-09-29T12:01:35.285Z,14.40
2018-09-29T12:04:03.874Z,14.30
2018-09-29T12:06:32.360Z,14.30
2018-09-29T12:09:00.957Z,14.40
2018-09-29T12:11:29.330Z,14.40
2018-09-29T12:13:57.735Z,14.40
2018-09-29T12:16:26.134Z,14.40
2018-09-29T12:18:54.580Z,14.50
2018-09-29T12:21:22.989Z,14.40
2018-09-29T12:23:52.053Z,14.50
2018-09-29T12:26:20.472Z,14.50
2018-09-29T12:28:48.907Z,14.60
2018-09-29T12:31:17.313Z,14.60
2018-09-29T12:33:45.878Z,14.60
2018-09-29T12:36:14.284Z,14.60
2018-09-29T12:38:43.336Z,14.70
2018-09-29T12:41:11.690Z,14.60
2018-09-29T12:43:40.113Z,14.50
2018-09-29T12:46:08.486Z,14.40
2018-09-29T12:48:36.946Z,14.30
2018-09-29T12:51:05.291Z,14.30
2018-09-29T12:53:33.978Z,14.10
2018-09-29T12:56:02.350Z,14.10
2018-09-29T12:58:30.680Z,14.10
2018-09-29T13:00:59.170Z,14.10
2018-09-29T13:03:28.941Z,14.10
2018-09-29T13:05:57.351Z,14.10
2018-09-29T13:08:25.819Z,14.20
2018-09-29T13:10:54.229Z,14.40
2018-09-29T13:13:22.557Z,14.40
2018-09-29T13:15:51.603Z,14.40
2018-09-29T13:18:19.957Z,14.40
2018-09-29T13:20:48.313Z,14.40
2018-09-29T13:23:17.401Z,14.50
2018-09-29T13:25:45.799Z,14.60
2018-09-29T13:28:14.253Z,14.70
2018-09-29T13:30:42.587Z,14.70
2018-09-29T13:33:11.109Z,14.70
2018-09-29T13:35:39.502Z,14.80
2018-09-29T13:38:08.165Z,14.80
2018-09-29T13:40:36.568Z,14.80
2018-09-29T13:43:05.277Z,14.80
2018-09-29T13:45:33.709Z,14.80
2018-09-29T13:48:02.168Z,14.90
2018-09-29T13:50:30.641Z,14.90
2018-09-29T13:53:00.076Z,14.90
2018-09-29T13:55:28.508Z,14.90
2018-09-29T13:57:56.974Z,14.90
2018-09-29T14:00:25.364Z,14.90
2018-09-29T14:02:54.414Z,15.00
2018-09-29T14:05:22.797Z,14.90
2018-09-29T14:07:51.365Z,14.90
2018-09-29T14:10:19.695Z,14.90
2018-09-29T14:12:48.194Z,14.90
2018-09-29T14:15:16.691Z,14.90
2018-09-29T14:17:47.554Z,14.90
2018-09-29T14:20:16.436Z,14.90
2018-09-29T14:22:44.833Z,15.00
2018-09-29T14:25:13.168Z,14.80
2018-09-29T14:27:41.544Z,14.90
2018-09-29T14:30:09.988Z,14.80
2018-09-29T14:32:38.378Z,14.90
2018-09-29T14:35:06.817Z,15.00
2018-09-29T14:37:35.233Z,15.00
2018-09-29T14:40:03.581Z,15.00
2018-09-29T14:42:32.039Z,15.20
2018-09-29T14:45:00.455Z,15.20
2018-09-29T14:47:28.775Z,15.20
2018-09-29T14:49:57.204Z,15.20
2018-09-29T14:52:26.405Z,15.00
2018-09-29T14:54:54.682Z,15.00
2018-09-29T14:57:23.057Z,15.10
2018-09-29T14:59:51.507Z,15.10
2018-09-29T15:02:19.981Z,15.00
2018-09-29T15:04:48.350Z,15.00
2018-09-29T15:07:16.747Z,15.00
2018-09-29T15:09:45.126Z,15.00
2018-09-29T15:12:13.631Z,15.00
2018-09-29T15:14:41.990Z,15.20
2018-09-29T15:17:10.344Z,15.40
2018-09-29T15:19:38.749Z,15.50
2018-09-29T15:22:07.229Z,15.70
2018-09-29T15:24:35.604Z,15.90
2018-09-29T15:27:03.998Z,15.90
2018-09-29T15:29:32.479Z,15.90
2018-09-29T15:32:01.202Z,16.00
2018-09-29T15:34:29.663Z,15.90
2018-09-29T15:36:58.073Z,16.00
2018-09-29T15:39:26.427Z,16.00
2018-09-29T15:41:54.776Z,15.90
2018-09-29T15:44:23.262Z,15.90
2018-09-29T15:46:51.609Z,16.00
2018-09-29T15:49:20.696Z,15.90
2018-09-29T15:51:49.109Z,15.40
2018-09-29T15:54:17.440Z,15.10
2018-09-29T15:56:45.846Z,14.80
2018-09-29T15:59:14.255Z,14.60
2018-09-29T16:01:42.722Z,14.40
2018-09-29T16:04:11.152Z,14.30
2018-09-29T16:06:46.072Z,14.20
2018-09-29T16:09:14.472Z,14.20
2018-09-29T16:11:42.856Z,14.10
2018-09-29T16:14:11.399Z,14.10
2018-09-29T16:16:39.831Z,14.00
2018-09-29T16:19:08.255Z,14.00
2018-09-29T16:21:36.708Z,14.00
2018-09-29T16:24:05.144Z,13.90
2018-09-29T16:26:34.082Z,13.90
2018-09-29T16:29:02.670Z,13.80
2018-09-29T16:31:31.224Z,13.80
2018-09-29T16:33:59.758Z,13.70
2018-09-29T16:36:28.225Z,13.70
2018-09-29T16:38:56.645Z,13.70
2018-09-29T16:41:24.998Z,13.70
2018-09-29T16:43:54.388Z,13.70
2018-09-29T16:46:22.817Z,13.60
2018-09-29T16:48:51.286Z,13.60
2018-09-29T16:51:19.693Z,13.60
2018-09-29T16:53:48.035Z,13.60
2018-09-29T16:56:16.408Z,13.60
2018-09-29T16:58:44.943Z,13.60
2018-09-29T17:01:13.342Z,13.50
2018-09-29T17:03:41.984Z,13.40
2018-09-29T17:06:10.383Z,13.30
2018-09-29T17:08:38.771Z,13.20
2018-09-29T17:11:07.184Z,13.10
2018-09-29T17:13:35.870Z,13.00
2018-09-29T17:16:04.484Z,12.90
2018-09-29T17:18:32.872Z,12.90
2018-09-29T17:21:01.393Z,12.80
2018-09-29T17:23:29.729Z,12.80
2018-09-29T17:25:58.171Z,12.70
2018-09-29T17:28:26.673Z,12.70
2018-09-29T17:30:56.157Z,12.70
2018-09-29T17:33:24.981Z,12.60
2018-09-29T17:35:53.549Z,12.60
2018-09-29T17:38:21.942Z,12.60
2018-09-29T17:40:50.300Z,12.50
2018-09-29T17:43:18.766Z,12.40
2018-09-29T17:45:47.233Z,12.40
2018-09-29T17:48:16.132Z,12.30
2018-09-29T17:50:44.879Z,12.30
2018-09-29T17:53:13.265Z,12.20
2018-09-29T17:55:41.693Z,12.10
2018-09-29T17:58:10.106Z,12.10
2018-09-29T18:00:38.434Z,12.00
2018-09-29T18:03:07.006Z,11.90
2018-09-29T18:05:35.507Z,11.90
2018-09-29T18:08:03.965Z,11.80
2018-09-29T18:10:32.417Z,11.70
2018-09-29T18:13:00.954Z,11.60
2018-09-29T18:15:29.408Z,11.60
2018-09-29T18:17:57.786Z,11.50
2018-09-29T18:20:26.136Z,11.50
2018-09-29T18:22:54.559Z,11.50
2018-09-29T18:25:22.926Z,11.40
2018-09-29T18:27:51.274Z,11.40
2018-09-29T18:30:19.728Z,11.30
2018-09-29T18:32:48.134Z,11.30
2018-09-29T18:35:16.487Z,11.30
2018-09-29T18:37:44.840Z,11.20
2018-09-29T18:40:13.205Z,11.20
2018-09-29T18:42:41.563Z,11.10
2018-09-29T18:45:09.979Z,11.10
2018-09-29T18:47:38.327Z,11.10
2018-09-29T18:50:07.455Z,11.00
2018-09-29T18:52:35.996Z,11.00
2018-09-29T18:55:04.409Z,11.00
2018-09-29T18:57:32.878Z,11.00
2018-09-29T19:00:01.128Z,10.90
2018-09-29T19:02:29.690Z,10.90
2018-09-29T19:04:58.028Z,10.90
2018-09-29T19:07:26.417Z,10.90
2018-09-29T19:09:54.761Z,10.80
2018-09-29T19:12:23.252Z,10.80
2018-09-29T19:14:51.643Z,10.70
2018-09-29T19:17:19.985Z,10.70
2018-09-29T19:19:48.479Z,10.70
2018-09-29T19:22:17.707Z,10.60
2018-09-29T19:24:47.735Z,10.60
2018-09-29T19:27:17.557Z,10.60
2018-09-29T19:29:45.931Z,10.60
2018-09-29T19:32:14.371Z,10.50
2018-09-29T19:34:42.779Z,10.40
2018-09-29T19:37:11.188Z,10.40
2018-09-29T19:39:39.563Z,10.40
2018-09-29T19:42:08.041Z,10.40
2018-09-29T19:44:37.095Z,10.50
2018-09-29T19:47:05.495Z,10.50
2018-09-29T19:49:33.872Z,10.50
2018-09-29T19:52:02.442Z,10.50
2018-09-29T19:54:31.868Z,10.50
2018-09-29T19:57:01.159Z,10.40
2018-09-29T19:59:29.603Z,10.40
2018-09-29T20:01:58.208Z,10.30
2018-09-29T20:04:26.543Z,10.30
2018-09-29T20:06:55.582Z,10.30
2018-09-29T20:09:23.996Z,10.30
2018-09-29T20:11:52.450Z,10.20
2018-09-29T20:14:20.855Z,10.20
2018-09-29T20:16:49.365Z,10.10
2018-09-29T20:19:17.749Z,10.10
2018-09-29T20:21:46.156Z,10.10
2018-09-29T20:24:14.724Z,10.10
2018-09-29T20:26:43.081Z,10.10
2018-09-29T20:29:11.424Z,10.10
2018-09-29T20:31:39.848Z,10.10
2018-09-29T20:34:08.354Z,10.10
2018-09-29T20:36:36.858Z,10.10
2018-09-29T20:39:07.683Z,10.10
2018-09-29T20:41:36.098Z,10.00
2018-09-29T20:44:04.578Z,9.90
2018-09-29T20:46:33.784Z,9.80
2018-09-29T20:49:02.117Z,9.80
2018-09-29T20:51:30.464Z,9.80
2018-09-29T20:53:58.872Z,9.70
2018-09-29T20:56:27.221Z,9.70
2018-09-29T20:58:55.625Z,9.80
2018-09-29T21:01:24.039Z,9.70
2018-09-29T21:03:52.412Z,9.70
2018-09-29T21:06:20.784Z,9.60
2018-09-29T21:08:49.134Z,9.60
2018-09-29T21:11:18.113Z,9.50
2018-09-29T21:13:46.559Z,9.50
2018-09-29T21:16:15.006Z,9.50
2018-09-29T21:18:43.408Z,9.50
2018-09-29T21:21:11.783Z,9.50
2018-09-29T21:23:40.322Z,9.50
2018-09-29T21:26:08.716Z,9.50
2018-09-29T21:28:37.098Z,9.50
2018-09-29T21:31:05.615Z,9.30
2018-09-29T21:33:34.139Z,9.30
2018-09-29T21:36:02.597Z,9.30
2018-09-29T21:38:30.974Z,9.20
2018-09-29T21:40:59.374Z,9.20
2018-09-29T21:43:27.866Z,9.20
2018-09-29T21:45:56.206Z,9.10
2018-09-29T21:48:24.584Z,9.10
2018-09-29T21:50:52.935Z,9.10
2018-09-29T21:53:21.414Z,9.00
2018-09-29T21:55:49.775Z,9.10
2018-09-29T21:58:18.112Z,9.10
2018-09-29T22:00:46.569Z,9.10
2018-09-29T22:03:15.866Z,9.20
2018-09-29T22:05:44.865Z,9.20
2018-09-29T22:08:13.330Z,9.30
2018-09-29T22:10:41.710Z,9.30
2018-09-29T22:13:10.308Z,9.20
2018-09-29T22:15:38.715Z,9.10
2018-09-29T22:18:07.087Z,9.10
2018-09-29T22:20:35.475Z,9.00
2018-09-29T22:23:04.015Z,9.00
2018-09-29T22:25:32.387Z,9.00
2018-09-29T22:28:00.826Z,9.00
2018-09-29T22:30:29.228Z,9.00
2018-09-29T22:32:57.630Z,8.90
2018-09-29T22:35:26.143Z,8.90
2018-09-29T22:37:54.528Z,8.90
2018-09-29T22:40:22.923Z,8.90
2018-09-29T22:42:51.476Z,8.80
2018-09-29T22:45:19.842Z,8.80
2018-09-29T22:47:48.246Z,8.80
2018-09-29T22:50:16.650Z,8.80
2018-09-29T22:52:45.085Z,8.70
2018-09-29T22:55:13.501Z,8.70
2018-09-29T22:57:41.896Z,8.70
2018-09-29T23:00:10.183Z,8.70
2018-09-29T23:02:38.606Z,8.70
2018-09-29T23:05:07.920Z,8.70
2018-09-29T23:07:36.270Z,8.70
2018-09-29T23:10:04.729Z,8.70
2018-09-29T23:12:33.140Z,8.70
2018-09-29T23:15:01.532Z,8.60
2018-09-29T23:17:29.896Z,8.60
2018-09-29T23:19:58.242Z,8.60
2018-09-29T23:22:26.655Z,8.50
2018-09-29T23:24:55.031Z,8.50
2018-09-29T23:27:23.498Z,8.40
2018-09-29T23:29:51.857Z,8.40
2018-09-29T23:32:20.237Z,8.40
2018-09-29T23:34:48.564Z,8.30
2018-09-29T23:37:16.961Z,8.30
2018-09-29T23:39:45.334Z,8.30
2018-09-29T23:42:13.934Z,8.30
2018-09-29T23:44:42.377Z,8.30
2018-09-29T23:47:10.764Z,8.30
2018-09-29T23:49:39.078Z,8.30
2018-09-29T23:56:42.393Z,8.30
2018-09-29T23:59:10.719Z,8.20
